الصفحة الرئيسية
METAR-TAF:

METAR-TAF

مطار :

مطار تشانغشا هوانغوا الدولي

Changsha, جمهورية الصين الشعبية

دائرة عرض: 28-11N, خط طول: 113-13E, ارتفاع: 66 متر

مراقبة الطقس الحالي

تاريخ ووقت الإصدار 35 دقيقة قبل الساعة 23:00UTC
ريح 4 عقدة من الجنوب
درجة الحرارة 24°درجة مئوية
الرطوبة 100%
ضغط 1005 hPa
الرؤية: 4000 متر
غشاء

METAR: ZGHA 032300Z 17002MPS 4000 BR NSC 24/24 Q1005 NOSIG

زمن: 07:35 (23:35 UTC)

توقعات

تاريخ ووقت الإصدار 8ساعات و 33 دقيقة قبل الساعة 15:02UTC
التوقعات صالحة من03 الساعة 18 UTC إلى 04 الساعة 18 UTC
ريح 8 عقدة من الجنوب
الرؤية: 5000 متر
غيوم متفرقة على ارتفاع 2000 قدم
غيوم مفككة على ارتفاع 5000 قدم
غشاء
مؤقت
من 04 الساعة 14 UTC إلى 04 الساعة 18 UTC
الرؤية: 2200 متر
غيوم مفككة على ارتفاع 1100 قدم
غيوم قليلة على ارتفاع 3000 قدم, مزنة ركامية.
غيوم مفككة على ارتفاع 4000 قدم
زخات من المطر

TAF: ZGHA 031502Z 0318/0418 18004MPS 5000 BR SCT020 BKN050 TX32/0406Z TN22/0322Z TEMPO 0414/0418 2200 SHRA BKN011 FEW030CB BKN040

أرصاد الطقس والتوقعات من أكثر من 4000 مطار (تقارير الطقس للمطار METAR والتنبؤ بالطقس بالمطارTAF).

المحطات المتاحة هي النقط الصفراء والحمراء على الخريطة.

حرك المؤشر فوق النقطة لمعرفة اسم المحطة.

ثم انقر لمعرفة أرصاد وتوقعات الطقس.

لتغيير الخارطة: اضغط على الأزرار الخضراء مع رمز الصليب الأسود للتكبير. على الزر الأخضر مع شرطة للتصغير، أو على الأسهم الخضراء للخرائط المجاورة.


METAR-TAF: